sensor_id;sensor_type;location;lat;lon;timestamp;temperature;humidity
25058;DHT22;13057;50.978;11.034;2022-07-06T00:00:00;20.20;74.20
25058;DHT22;13057;50.978;11.034;2022-07-06T00:02:28;20.20;74.40
25058;DHT22;13057;50.978;11.034;2022-07-06T00:04:57;20.10;74.60
25058;DHT22;13057;50.978;11.034;2022-07-06T00:07:24;20.00;75.00
25058;DHT22;13057;50.978;11.034;2022-07-06T00:09:52;20.00;75.20
25058;DHT22;13057;50.978;11.034;2022-07-06T00:12:18;20.00;75.30
25058;DHT22;13057;50.978;11.034;2022-07-06T00:14:45;20.00;75.40
25058;DHT22;13057;50.978;11.034;2022-07-06T00:17:11;20.00;75.20
25058;DHT22;13057;50.978;11.034;2022-07-06T00:19:37;20.00;74.50
25058;DHT22;13057;50.978;11.034;2022-07-06T00:22:04;19.90;73.30
25058;DHT22;13057;50.978;11.034;2022-07-06T00:24:30;19.90;73.00
25058;DHT22;13057;50.978;11.034;2022-07-06T00:26:57;19.70;73.10
25058;DHT22;13057;50.978;11.034;2022-07-06T00:29:25;19.70;73.60
25058;DHT22;13057;50.978;11.034;2022-07-06T00:31:51;19.70;73.60
25058;DHT22;13057;50.978;11.034;2022-07-06T00:34:17;19.70;73.90
25058;DHT22;13057;50.978;11.034;2022-07-06T00:36:43;19.60;73.80
25058;DHT22;13057;50.978;11.034;2022-07-06T00:39:10;19.60;74.00
25058;DHT22;13057;50.978;11.034;2022-07-06T00:41:36;19.50;74.00
25058;DHT22;13057;50.978;11.034;2022-07-06T00:44:07;19.50;74.10
25058;DHT22;13057;50.978;11.034;2022-07-06T00:46:35;19.40;74.40
25058;DHT22;13057;50.978;11.034;2022-07-06T00:49:01;19.40;74.60
25058;DHT22;13057;50.978;11.034;2022-07-06T00:51:33;19.30;74.70
25058;DHT22;13057;50.978;11.034;2022-07-06T00:54:04;19.30;75.10
25058;DHT22;13057;50.978;11.034;2022-07-06T00:56:32;19.20;75.30
25058;DHT22;13057;50.978;11.034;2022-07-06T00:59:00;19.20;75.50
25058;DHT22;13057;50.978;11.034;2022-07-06T01:01:28;19.10;75.70
25058;DHT22;13057;50.978;11.034;2022-07-06T01:03:56;19.00;76.00
25058;DHT22;13057;50.978;11.034;2022-07-06T01:06:24;19.00;76.20
25058;DHT22;13057;50.978;11.034;2022-07-06T01:08:50;18.90;76.40
25058;DHT22;13057;50.978;11.034;2022-07-06T01:11:18;18.80;76.60
25058;DHT22;13057;50.978;11.034;2022-07-06T01:13:46;18.80;76.90
25058;DHT22;13057;50.978;11.034;2022-07-06T01:16:13;18.80;77.00
25058;DHT22;13057;50.978;11.034;2022-07-06T01:18:40;18.70;77.20
25058;DHT22;13057;50.978;11.034;2022-07-06T01:21:12;18.70;77.50
25058;DHT22;13057;50.978;11.034;2022-07-06T01:23:40;18.70;77.30
25058;DHT22;13057;50.978;11.034;2022-07-06T01:26:12;18.70;77.30
25058;DHT22;13057;50.978;11.034;2022-07-06T01:28:39;18.70;77.60
25058;DHT22;13057;50.978;11.034;2022-07-06T01:31:13;18.70;77.50
25058;DHT22;13057;50.978;11.034;2022-07-06T01:33:39;18.70;77.70
25058;DHT22;13057;50.978;11.034;2022-07-06T01:36:06;18.70;77.70
25058;DHT22;13057;50.978;11.034;2022-07-06T01:38:49;18.60;77.80
25058;DHT22;13057;50.978;11.034;2022-07-06T01:41:17;18.60;78.00
25058;DHT22;13057;50.978;11.034;2022-07-06T01:43:43;18.70;78.00
25058;DHT22;13057;50.978;11.034;2022-07-06T01:46:11;18.70;78.10
25058;DHT22;13057;50.978;11.034;2022-07-06T01:48:38;18.70;78.00
25058;DHT22;13057;50.978;11.034;2022-07-06T01:51:05;18.60;78.00
25058;DHT22;13057;50.978;11.034;2022-07-06T01:53:33;18.70;78.30
25058;DHT22;13057;50.978;11.034;2022-07-06T01:56:01;18.60;78.50
25058;DHT22;13057;50.978;11.034;2022-07-06T01:58:28;18.60;78.70
25058;DHT22;13057;50.978;11.034;2022-07-06T02:00:56;18.50;79.20
25058;DHT22;13057;50.978;11.034;2022-07-06T02:03:22;18.50;79.80
25058;DHT22;13057;50.978;11.034;2022-07-06T02:05:49;18.50;80.20
25058;DHT22;13057;50.978;11.034;2022-07-06T02:08:15;18.40;80.30
25058;DHT22;13057;50.978;11.034;2022-07-06T02:10:41;18.30;80.70
25058;DHT22;13057;50.978;11.034;2022-07-06T02:13:08;18.30;80.90
25058;DHT22;13057;50.978;11.034;2022-07-06T02:15:36;18.20;81.10
25058;DHT22;13057;50.978;11.034;2022-07-06T02:18:02;18.20;81.40
25058;DHT22;13057;50.978;11.034;2022-07-06T02:20:31;18.10;81.50
25058;DHT22;13057;50.978;11.034;2022-07-06T02:22:58;18.00;81.90
25058;DHT22;13057;50.978;11.034;2022-07-06T02:25:24;18.00;82.40
25058;DHT22;13057;50.978;11.034;2022-07-06T02:27:50;18.00;82.60
25058;DHT22;13057;50.978;11.034;2022-07-06T02:30:17;18.00;82.60
25058;DHT22;13057;50.978;11.034;2022-07-06T02:32:44;17.90;82.70
25058;DHT22;13057;50.978;11.034;2022-07-06T02:35:10;17.90;83.00
25058;DHT22;13057;50.978;11.034;2022-07-06T02:37:38;17.80;83.20
25058;DHT22;13057;50.978;11.034;2022-07-06T02:40:06;17.70;84.00
25058;DHT22;13057;50.978;11.034;2022-07-06T02:42:34;17.70;84.20
25058;DHT22;13057;50.978;11.034;2022-07-06T02:45:00;17.60;84.40
25058;DHT22;13057;50.978;11.034;2022-07-06T02:47:29;17.60;84.60
25058;DHT22;13057;50.978;11.034;2022-07-06T02:49:55;17.60;85.10
25058;DHT22;13057;50.978;11.034;2022-07-06T02:52:22;17.60;84.90
25058;DHT22;13057;50.978;11.034;2022-07-06T02:54:49;17.50;85.20
25058;DHT22;13057;50.978;11.034;2022-07-06T02:57:16;17.60;85.40
25058;DHT22;13057;50.978;11.034;2022-07-06T02:59:42;17.50;85.60
25058;DHT22;13057;50.978;11.034;2022-07-06T03:02:10;17.50;85.50
25058;DHT22;13057;50.978;11.034;2022-07-06T03:04:36;17.40;85.90
25058;DHT22;13057;50.978;11.034;2022-07-06T03:07:02;17.30;86.10
25058;DHT22;13057;50.978;11.034;2022-07-06T03:09:29;17.30;86.60
25058;DHT22;13057;50.978;11.034;2022-07-06T03:11:55;17.30;87.00
25058;DHT22;13057;50.978;11.034;2022-07-06T03:14:22;17.20;87.30
25058;DHT22;13057;50.978;11.034;2022-07-06T03:16:49;17.20;87.50
25058;DHT22;13057;50.978;11.034;2022-07-06T03:19:17;17.20;87.60
25058;DHT22;13057;50.978;11.034;2022-07-06T03:21:45;17.20;87.70
25058;DHT22;13057;50.978;11.034;2022-07-06T03:24:13;17.20;88.00
25058;DHT22;13057;50.978;11.034;2022-07-06T03:26:39;17.20;88.10
25058;DHT22;13057;50.978;11.034;2022-07-06T03:29:05;17.20;88.20
25058;DHT22;13057;50.978;11.034;2022-07-06T03:31:32;17.20;88.20
25058;DHT22;13057;50.978;11.034;2022-07-06T03:33:58;17.20;88.40
25058;DHT22;13057;50.978;11.034;2022-07-06T03:36:24;17.20;88.60
25058;DHT22;13057;50.978;11.034;2022-07-06T03:38:50;17.20;88.70
25058;DHT22;13057;50.978;11.034;2022-07-06T03:41:18;17.10;88.80
25058;DHT22;13057;50.978;11.034;2022-07-06T03:43:47;17.20;89.10
25058;DHT22;13057;50.978;11.034;2022-07-06T03:46:15;17.10;89.20
25058;DHT22;13057;50.978;11.034;2022-07-06T03:48:42;17.20;89.20
25058;DHT22;13057;50.978;11.034;2022-07-06T03:51:09;17.10;89.50
25058;DHT22;13057;50.978;11.034;2022-07-06T03:53:36;17.10;89.40
25058;DHT22;13057;50.978;11.034;2022-07-06T03:56:03;17.10;89.50
25058;DHT22;13057;50.978;11.034;2022-07-06T03:58:49;17.10;89.70
25058;DHT22;13057;50.978;11.034;2022-07-06T04:01:16;17.10;89.90
25058;DHT22;13057;50.978;11.034;2022-07-06T04:03:44;17.10;89.90
25058;DHT22;13057;50.978;11.034;2022-07-06T04:06:11;17.10;90.00
25058;DHT22;13057;50.978;11.034;2022-07-06T04:08:38;17.10;90.10
25058;DHT22;13057;50.978;11.034;2022-07-06T04:11:04;17.00;90.20
25058;DHT22;13057;50.978;11.034;2022-07-06T04:13:30;17.00;90.10
25058;DHT22;13057;50.978;11.034;2022-07-06T04:15:57;17.00;90.30
25058;DHT22;13057;50.978;11.034;2022-07-06T04:18:23;17.00;90.40
25058;DHT22;13057;50.978;11.034;2022-07-06T04:20:50;17.00;90.40
25058;DHT22;13057;50.978;11.034;2022-07-06T04:23:17;17.10;90.40
25058;DHT22;13057;50.978;11.034;2022-07-06T04:25:45;17.10;90.30
25058;DHT22;13057;50.978;11.034;2022-07-06T04:28:12;17.20;90.30
25058;DHT22;13057;50.978;11.034;2022-07-06T04:30:38;17.20;90.10
25058;DHT22;13057;50.978;11.034;2022-07-06T04:33:04;17.30;90.30
25058;DHT22;13057;50.978;11.034;2022-07-06T04:35:31;17.40;90.20
25058;DHT22;13057;50.978;11.034;2022-07-06T04:37:57;17.50;90.20
25058;DHT22;13057;50.978;11.034;2022-07-06T04:40:24;17.40;90.00
25058;DHT22;13057;50.978;11.034;2022-07-06T04:42:50;17.40;90.00
25058;DHT22;13057;50.978;11.034;2022-07-06T04:45:17;17.40;90.10
25058;DHT22;13057;50.978;11.034;2022-07-06T04:47:44;17.40;90.30
25058;DHT22;13057;50.978;11.034;2022-07-06T04:50:11;17.40;90.20
25058;DHT22;13057;50.978;11.034;2022-07-06T04:52:37;17.30;90.30
25058;DHT22;13057;50.978;11.034;2022-07-06T04:55:04;17.30;90.40
25058;DHT22;13057;50.978;11.034;2022-07-06T04:57:32;17.40;90.30
25058;DHT22;13057;50.978;11.034;2022-07-06T04:59:58;17.50;90.40
25058;DHT22;13057;50.978;11.034;2022-07-06T05:02:26;17.50;90.50
25058;DHT22;13057;50.978;11.034;2022-07-06T05:04:53;17.50;90.30
25058;DHT22;13057;50.978;11.034;2022-07-06T05:07:20;17.60;90.30
25058;DHT22;13057;50.978;11.034;2022-07-06T05:09:47;17.60;90.40
25058;DHT22;13057;50.978;11.034;2022-07-06T05:12:13;17.60;90.20
25058;DHT22;13057;50.978;11.034;2022-07-06T05:14:40;17.70;90.30
25058;DHT22;13057;50.978;11.034;2022-07-06T05:17:06;17.60;90.40
25058;DHT22;13057;50.978;11.034;2022-07-06T05:19:32;17.80;90.30
25058;DHT22;13057;50.978;11.034;2022-07-06T05:21:59;17.90;90.30
25058;DHT22;13057;50.978;11.034;2022-07-06T05:24:26;18.00;90.10
25058;DHT22;13057;50.978;11.034;2022-07-06T05:26:54;18.00;90.00
25058;DHT22;13057;50.978;11.034;2022-07-06T05:29:21;18.00;90.00
25058;DHT22;13057;50.978;11.034;2022-07-06T05:31:49;18.10;90.00
25058;DHT22;13057;50.978;11.034;2022-07-06T05:34:18;18.10;90.00
25058;DHT22;13057;50.978;11.034;2022-07-06T05:36:44;18.20;89.90
25058;DHT22;13057;50.978;11.034;2022-07-06T05:39:11;18.40;89.70
25058;DHT22;13057;50.978;11.034;2022-07-06T05:41:37;18.40;89.10
25058;DHT22;13057;50.978;11.034;2022-07-06T05:44:04;18.50;89.20
25058;DHT22;13057;50.978;11.034;2022-07-06T05:46:30;18.50;89.60
25058;DHT22;13057;50.978;11.034;2022-07-06T05:48:58;18.60;89.40
25058;DHT22;13057;50.978;11.034;2022-07-06T05:51:42;18.60;89.70
25058;DHT22;13057;50.978;11.034;2022-07-06T05:54:09;18.60;89.10
25058;DHT22;13057;50.978;11.034;2022-07-06T05:56:35;18.70;89.20
25058;DHT22;13057;50.978;11.034;2022-07-06T05:59:02;18.90;89.10
25058;DHT22;13057;50.978;11.034;2022-07-06T06:01:28;18.90;89.10
25058;DHT22;13057;50.978;11.034;2022-07-06T06:03:55;18.90;89.00
25058;DHT22;13057;50.978;11.034;2022-07-06T06:06:23;18.90;89.10
25058;DHT22;13057;50.978;11.034;2022-07-06T06:08:50;18.90;88.90
25058;DHT22;13057;50.978;11.034;2022-07-06T06:11:17;18.90;89.00
25058;DHT22;13057;50.978;11.034;2022-07-06T06:13:43;18.90;89.50
25058;DHT22;13057;50.978;11.034;2022-07-06T06:16:10;19.20;88.80
25058;DHT22;13057;50.978;11.034;2022-07-06T06:18:36;19.80;88.50
25058;DHT22;13057;50.978;11.034;2022-07-06T06:21:02;20.20;84.60
25058;DHT22;13057;50.978;11.034;2022-07-06T06:23:30;20.10;84.70
25058;DHT22;13057;50.978;11.034;2022-07-06T06:25:57;19.90;85.40
25058;DHT22;13057;50.978;11.034;2022-07-06T06:28:25;19.90;85.30
25058;DHT22;13057;50.978;11.034;2022-07-06T06:30:52;19.80;85.50
25058;DHT22;13057;50.978;11.034;2022-07-06T06:33:21;19.90;85.20
25058;DHT22;13057;50.978;11.034;2022-07-06T06:35:49;19.90;85.20
25058;DHT22;13057;50.978;11.034;2022-07-06T06:38:17;20.00;85.20
25058;DHT22;13057;50.978;11.034;2022-07-06T06:40:44;20.00;85.00
25058;DHT22;13057;50.978;11.034;2022-07-06T06:43:11;19.90;85.20
25058;DHT22;13057;50.978;11.034;2022-07-06T06:45:38;19.90;85.40
25058;DHT22;13057;50.978;11.034;2022-07-06T06:48:04;19.90;86.30
25058;DHT22;13057;50.978;11.034;2022-07-06T06:50:31;19.90;85.80
25058;DHT22;13057;50.978;11.034;2022-07-06T06:52:58;19.90;85.70
25058;DHT22;13057;50.978;11.034;2022-07-06T06:55:26;19.90;85.80
25058;DHT22;13057;50.978;11.034;2022-07-06T06:57:53;19.90;85.90
25058;DHT22;13057;50.978;11.034;2022-07-06T07:00:20;19.90;85.50
25058;DHT22;13057;50.978;11.034;2022-07-06T07:02:46;19.80;86.00
25058;DHT22;13057;50.978;11.034;2022-07-06T07:05:13;19.80;86.30
25058;DHT22;13057;50.978;11.034;2022-07-06T07:07:39;19.90;86.60
25058;DHT22;13057;50.978;11.034;2022-07-06T07:10:06;20.10;86.90
25058;DHT22;13057;50.978;11.034;2022-07-06T07:12:33;20.40;85.40
25058;DHT22;13057;50.978;11.034;2022-07-06T07:18:21;20.70;83.70
25058;DHT22;13057;50.978;11.034;2022-07-06T07:20:47;20.60;84.00
25058;DHT22;13057;50.978;11.034;2022-07-06T07:23:14;20.70;83.20
25058;DHT22;13057;50.978;11.034;2022-07-06T07:25:40;20.80;83.50
25058;DHT22;13057;50.978;11.034;2022-07-06T07:28:07;21.00;83.20
25058;DHT22;13057;50.978;11.034;2022-07-06T07:30:34;21.40;82.80
25058;DHT22;13057;50.978;11.034;2022-07-06T07:33:02;21.60;81.50
25058;DHT22;13057;50.978;11.034;2022-07-06T07:35:30;22.00;81.20
25058;DHT22;13057;50.978;11.034;2022-07-06T07:37:57;22.10;80.30
25058;DHT22;13057;50.978;11.034;2022-07-06T07:40:24;22.20;80.20
25058;DHT22;13057;50.978;11.034;2022-07-06T07:42:56;22.30;79.10
25058;DHT22;13057;50.978;11.034;2022-07-06T07:45:23;22.30;79.00
25058;DHT22;13057;50.978;11.034;2022-07-06T07:47:49;22.40;78.30
25058;DHT22;13057;50.978;11.034;2022-07-06T07:50:15;22.30;77.50
25058;DHT22;13057;50.978;11.034;2022-07-06T07:52:42;22.40;78.10
25058;DHT22;13057;50.978;11.034;2022-07-06T07:55:09;22.60;77.60
25058;DHT22;13057;50.978;11.034;2022-07-06T07:57:36;22.60;76.80
25058;DHT22;13057;50.978;11.034;2022-07-06T08:00:05;22.70;76.50
25058;DHT22;13057;50.978;11.034;2022-07-06T08:02:32;22.80;76.10
25058;DHT22;13057;50.978;11.034;2022-07-06T08:05:00;22.80;75.10
25058;DHT22;13057;50.978;11.034;2022-07-06T08:07:27;22.80;75.30
25058;DHT22;13057;50.978;11.034;2022-07-06T08:09:54;22.90;75.50
25058;DHT22;13057;50.978;11.034;2022-07-06T08:12:20;23.00;75.40
25058;DHT22;13057;50.978;11.034;2022-07-06T08:14:47;23.10;76.20
25058;DHT22;13057;50.978;11.034;2022-07-06T08:17:13;23.20;74.50
25058;DHT22;13057;50.978;11.034;2022-07-06T08:19:40;23.20;73.10
25058;DHT22;13057;50.978;11.034;2022-07-06T08:22:06;23.20;71.80
25058;DHT22;13057;50.978;11.034;2022-07-06T08:24:37;23.20;72.60
25058;DHT22;13057;50.978;11.034;2022-07-06T08:27:04;23.30;72.70
25058;DHT22;13057;50.978;11.034;2022-07-06T08:29:32;23.30;71.60
25058;DHT22;13057;50.978;11.034;2022-07-06T08:32:00;23.20;70.90
25058;DHT22;13057;50.978;11.034;2022-07-06T08:34:28;23.30;71.30
25058;DHT22;13057;50.978;11.034;2022-07-06T08:36:54;23.40;71.00
25058;DHT22;13057;50.978;11.034;2022-07-06T08:39:21;23.30;69.40
25058;DHT22;13057;50.978;11.034;2022-07-06T08:41:48;23.30;70.90
25058;DHT22;13057;50.978;11.034;2022-07-06T08:44:15;23.30;70.20
25058;DHT22;13057;50.978;11.034;2022-07-06T08:46:43;23.40;70.60
25058;DHT22;13057;50.978;11.034;2022-07-06T08:49:14;23.50;70.10
25058;DHT22;13057;50.978;11.034;2022-07-06T08:51:41;23.50;70.30
25058;DHT22;13057;50.978;11.034;2022-07-06T08:54:08;23.50;68.40
25058;DHT22;13057;50.978;11.034;2022-07-06T08:56:36;23.60;68.30
25058;DHT22;13057;50.978;11.034;2022-07-06T08:59:04;23.60;68.00
25058;DHT22;13057;50.978;11.034;2022-07-06T09:01:36;23.60;67.70
25058;DHT22;13057;50.978;11.034;2022-07-06T09:04:06;23.60;68.00
25058;DHT22;13057;50.978;11.034;2022-07-06T12:21:47;23.40;60.00
25058;DHT22;13057;50.978;11.034;2022-07-06T12:24:33;23.40;59.40
25058;DHT22;13057;50.978;11.034;2022-07-06T12:27:20;23.40;59.90
25058;DHT22;13057;50.978;11.034;2022-07-06T12:29:47;23.40;59.60
25058;DHT22;13057;50.978;11.034;2022-07-06T12:32:19;23.40;58.80
25058;DHT22;13057;50.978;11.034;2022-07-06T12:35:03;23.40;58.40
25058;DHT22;13057;50.978;11.034;2022-07-06T12:37:30;23.40;58.60
25058;DHT22;13057;50.978;11.034;2022-07-06T12:40:02;23.40;58.90
25058;DHT22;13057;50.978;11.034;2022-07-06T12:42:30;23.40;57.80
25058;DHT22;13057;50.978;11.034;2022-07-06T12:44:57;23.30;56.90
25058;DHT22;13057;50.978;11.034;2022-07-06T12:47:25;23.30;58.10
25058;DHT22;13057;50.978;11.034;2022-07-06T12:50:08;23.30;58.20
25058;DHT22;13057;50.978;11.034;2022-07-06T12:52:35;23.40;57.50
25058;DHT22;13057;50.978;11.034;2022-07-06T12:55:04;23.30;57.40
25058;DHT22;13057;50.978;11.034;2022-07-06T12:57:52;23.30;57.70
25058;DHT22;13057;50.978;11.034;2022-07-06T13:00:20;23.30;57.10
25058;DHT22;13057;50.978;11.034;2022-07-06T13:02:51;23.30;57.60
25058;DHT22;13057;50.978;11.034;2022-07-06T13:05:26;23.30;57.50
25058;DHT22;13057;50.978;11.034;2022-07-06T13:07:57;23.40;57.70
25058;DHT22;13057;50.978;11.034;2022-07-06T13:10:27;23.40;58.00
25058;DHT22;13057;50.978;11.034;2022-07-06T13:13:01;23.50;57.40
25058;DHT22;13057;50.978;11.034;2022-07-06T13:15:29;23.50;57.40
25058;DHT22;13057;50.978;11.034;2022-07-06T13:17:57;23.50;56.80
25058;DHT22;13057;50.978;11.034;2022-07-06T13:20:25;23.50;56.20
25058;DHT22;13057;50.978;11.034;2022-07-06T13:22:51;23.40;57.10
25058;DHT22;13057;50.978;11.034;2022-07-06T13:25:18;23.50;57.50
25058;DHT22;13057;50.978;11.034;2022-07-06T13:27:44;23.50;56.70
25058;DHT22;13057;50.978;11.034;2022-07-06T13:30:11;23.40;56.90
25058;DHT22;13057;50.978;11.034;2022-07-06T13:32:37;23.40;57.30
25058;DHT22;13057;50.978;11.034;2022-07-06T13:35:05;23.50;57.70
25058;DHT22;13057;50.978;11.034;2022-07-06T13:37:33;23.50;57.60
25058;DHT22;13057;50.978;11.034;2022-07-06T13:40:01;23.50;57.10
25058;DHT22;13057;50.978;11.034;2022-07-06T13:42:28;23.40;57.40
25058;DHT22;13057;50.978;11.034;2022-07-06T13:44:56;23.40;57.70
25058;DHT22;13057;50.978;11.034;2022-07-06T13:47:22;23.40;57.70
25058;DHT22;13057;50.978;11.034;2022-07-06T13:49:49;23.40;57.70
25058;DHT22;13057;50.978;11.034;2022-07-06T13:52:15;23.50;57.70
25058;DHT22;13057;50.978;11.034;2022-07-06T13:54:44;23.50;56.50
25058;DHT22;13057;50.978;11.034;2022-07-06T13:57:10;23.30;56.60
25058;DHT22;13057;50.978;11.034;2022-07-06T13:59:36;23.30;56.20
25058;DHT22;13057;50.978;11.034;2022-07-06T14:02:03;23.20;57.10
25058;DHT22;13057;50.978;11.034;2022-07-06T14:04:30;23.30;57.10
25058;DHT22;13057;50.978;11.034;2022-07-06T14:06:58;23.30;57.50
25058;DHT22;13057;50.978;11.034;2022-07-06T14:09:25;23.40;56.90
25058;DHT22;13057;50.978;11.034;2022-07-06T14:11:51;23.40;57.60
25058;DHT22;13057;50.978;11.034;2022-07-06T14:14:17;23.50;57.80
25058;DHT22;13057;50.978;11.034;2022-07-06T14:16:44;23.50;57.40
25058;DHT22;13057;50.978;11.034;2022-07-06T14:19:10;23.40;56.60
25058;DHT22;13057;50.978;11.034;2022-07-06T14:21:36;23.30;57.20
25058;DHT22;13057;50.978;11.034;2022-07-06T14:24:04;23.30;57.40
25058;DHT22;13057;50.978;11.034;2022-07-06T14:26:31;23.30;58.00
25058;DHT22;13057;50.978;11.034;2022-07-06T14:29:00;23.30;57.70
25058;DHT22;13057;50.978;11.034;2022-07-06T14:31:28;23.40;57.90
25058;DHT22;13057;50.978;11.034;2022-07-06T14:33:54;23.40;57.10
25058;DHT22;13057;50.978;11.034;2022-07-06T14:36:21;23.40;57.60
25058;DHT22;13057;50.978;11.034;2022-07-06T14:38:47;23.40;57.80
25058;DHT22;13057;50.978;11.034;2022-07-06T14:41:13;23.40;58.00
25058;DHT22;13057;50.978;11.034;2022-07-06T14:43:41;23.30;56.60
25058;DHT22;13057;50.978;11.034;2022-07-06T14:46:07;23.20;56.90
25058;DHT22;13057;50.978;11.034;2022-07-06T14:48:35;23.10;58.00
25058;DHT22;13057;50.978;11.034;2022-07-06T14:51:03;23.10;58.40
25058;DHT22;13057;50.978;11.034;2022-07-06T14:53:30;23.20;58.20
25058;DHT22;13057;50.978;11.034;2022-07-06T14:55:57;23.10;58.30
25058;DHT22;13057;50.978;11.034;2022-07-06T14:58:23;23.00;58.50
25058;DHT22;13057;50.978;11.034;2022-07-06T15:00:49;22.90;58.30
25058;DHT22;13057;50.978;11.034;2022-07-06T15:03:19;22.90;58.70
25058;DHT22;13057;50.978;11.034;2022-07-06T15:05:48;23.00;58.50
25058;DHT22;13057;50.978;11.034;2022-07-06T15:08:16;23.10;58.40
25058;DHT22;13057;50.978;11.034;2022-07-06T15:10:45;23.10;57.80
25058;DHT22;13057;50.978;11.034;2022-07-06T15:13:13;23.10;57.90
25058;DHT22;13057;50.978;11.034;2022-07-06T15:15:40;23.20;58.00
25058;DHT22;13057;50.978;11.034;2022-07-06T15:18:06;23.10;58.40
25058;DHT22;13057;50.978;11.034;2022-07-06T15:20:33;23.20;58.00
25058;DHT22;13057;50.978;11.034;2022-07-06T15:22:59;23.10;57.30
25058;DHT22;13057;50.978;11.034;2022-07-06T15:25:26;23.00;57.70
25058;DHT22;13057;50.978;11.034;2022-07-06T15:27:52;22.90;58.00
25058;DHT22;13057;50.978;11.034;2022-07-06T15:30:20;22.90;57.60
25058;DHT22;13057;50.978;11.034;2022-07-06T15:32:48;22.90;57.60
25058;DHT22;13057;50.978;11.034;2022-07-06T15:35:15;22.90;57.60
25058;DHT22;13057;50.978;11.034;2022-07-06T15:37:43;22.90;58.80
25058;DHT22;13057;50.978;11.034;2022-07-06T15:40:12;22.90;57.60
25058;DHT22;13057;50.978;11.034;2022-07-06T15:42:45;22.90;57.30
25058;DHT22;13057;50.978;11.034;2022-07-06T15:45:18;22.90;57.60
25058;DHT22;13057;50.978;11.034;2022-07-06T15:47:47;22.90;57.00
25058;DHT22;13057;50.978;11.034;2022-07-06T15:50:15;22.90;58.40
25058;DHT22;13057;50.978;11.034;2022-07-06T15:52:46;22.80;57.00
25058;DHT22;13057;50.978;11.034;2022-07-06T15:55:14;22.70;56.80
25058;DHT22;13057;50.978;11.034;2022-07-06T15:57:41;22.80;57.20
25058;DHT22;13057;50.978;11.034;2022-07-06T16:00:08;22.70;57.10
25058;DHT22;13057;50.978;11.034;2022-07-06T16:02:34;22.70;57.30
25058;DHT22;13057;50.978;11.034;2022-07-06T16:05:01;22.80;57.40
25058;DHT22;13057;50.978;11.034;2022-07-06T16:07:27;22.80;56.70
25058;DHT22;13057;50.978;11.034;2022-07-06T16:09:53;22.80;57.00
25058;DHT22;13057;50.978;11.034;2022-07-06T16:12:20;22.70;56.80
25058;DHT22;13057;50.978;11.034;2022-07-06T16:14:49;22.70;56.70
25058;DHT22;13057;50.978;11.034;2022-07-06T16:17:17;22.70;55.70
25058;DHT22;13057;50.978;11.034;2022-07-06T16:19:44;22.50;55.40
25058;DHT22;13057;50.978;11.034;2022-07-06T16:22:10;22.40;55.10
25058;DHT22;13057;50.978;11.034;2022-07-06T16:24:37;22.40;56.50
25058;DHT22;13057;50.978;11.034;2022-07-06T16:27:06;22.40;56.30
25058;DHT22;13057;50.978;11.034;2022-07-06T16:29:35;22.40;56.50
25058;DHT22;13057;50.978;11.034;2022-07-06T16:32:02;22.40;56.60
25058;DHT22;13057;50.978;11.034;2022-07-06T16:34:29;22.40;56.70
25058;DHT22;13057;50.978;11.034;2022-07-06T16:36:55;22.40;56.70
25058;DHT22;13057;50.978;11.034;2022-07-06T16:39:23;22.20;56.00
25058;DHT22;13057;50.978;11.034;2022-07-06T16:41:50;22.00;56.50
25058;DHT22;13057;50.978;11.034;2022-07-06T16:44:18;21.80;57.00
25058;DHT22;13057;50.978;11.034;2022-07-06T16:46:46;21.70;57.30
25058;DHT22;13057;50.978;11.034;2022-07-06T16:49:13;21.70;57.20
25058;DHT22;13057;50.978;11.034;2022-07-06T16:51:39;21.60;57.20
25058;DHT22;13057;50.978;11.034;2022-07-06T16:54:06;21.60;57.30
25058;DHT22;13057;50.978;11.034;2022-07-06T16:56:33;21.70;56.90
25058;DHT22;13057;50.978;11.034;2022-07-06T16:59:00;21.60;57.00
25058;DHT22;13057;50.978;11.034;2022-07-06T17:01:32;21.60;57.10
25058;DHT22;13057;50.978;11.034;2022-07-06T17:03:58;21.40;57.20
25058;DHT22;13057;50.978;11.034;2022-07-06T17:06:27;21.30;57.80
25058;DHT22;13057;50.978;11.034;2022-07-06T17:08:55;21.40;58.00
25058;DHT22;13057;50.978;11.034;2022-07-06T17:11:23;21.40;57.70
25058;DHT22;13057;50.978;11.034;2022-07-06T17:13:51;21.30;57.60
25058;DHT22;13057;50.978;11.034;2022-07-06T17:16:18;21.20;57.80
25058;DHT22;13057;50.978;11.034;2022-07-06T17:18:45;21.20;57.70
25058;DHT22;13057;50.978;11.034;2022-07-06T17:21:16;21.20;58.50
25058;DHT22;13057;50.978;11.034;2022-07-06T17:23:49;21.10;58.00
25058;DHT22;13057;50.978;11.034;2022-07-06T17:26:18;21.10;58.10
25058;DHT22;13057;50.978;11.034;2022-07-06T17:28:44;21.10;58.00
25058;DHT22;13057;50.978;11.034;2022-07-06T17:31:10;21.00;57.90
25058;DHT22;13057;50.978;11.034;2022-07-06T17:33:37;21.00;58.00
25058;DHT22;13057;50.978;11.034;2022-07-06T17:36:03;21.00;58.20
25058;DHT22;13057;50.978;11.034;2022-07-06T17:38:32;21.00;58.20
25058;DHT22;13057;50.978;11.034;2022-07-06T17:40:59;20.90;58.00
25058;DHT22;13057;50.978;11.034;2022-07-06T17:43:26;20.90;58.00
25058;DHT22;13057;50.978;11.034;2022-07-06T17:45:55;20.90;58.00
25058;DHT22;13057;50.978;11.034;2022-07-06T17:48:28;20.90;58.00
25058;DHT22;13057;50.978;11.034;2022-07-06T17:50:56;20.80;58.10
25058;DHT22;13057;50.978;11.034;2022-07-06T17:53:26;20.80;58.60
25058;DHT22;13057;50.978;11.034;2022-07-06T17:55:55;20.70;58.80
25058;DHT22;13057;50.978;11.034;2022-07-06T17:58:22;20.70;59.00
25058;DHT22;13057;50.978;11.034;2022-07-06T18:00:51;20.70;59.00
25058;DHT22;13057;50.978;11.034;2022-07-06T18:03:22;20.70;59.20
25058;DHT22;13057;50.978;11.034;2022-07-06T18:05:52;20.60;59.10
25058;DHT22;13057;50.978;11.034;2022-07-06T18:08:19;20.60;59.20
25058;DHT22;13057;50.978;11.034;2022-07-06T18:10:46;20.60;59.50
25058;DHT22;13057;50.978;11.034;2022-07-06T18:13:15;20.60;59.70
25058;DHT22;13057;50.978;11.034;2022-07-06T18:15:43;20.50;59.80
25058;DHT22;13057;50.978;11.034;2022-07-06T18:18:09;20.60;61.40
25058;DHT22;13057;50.978;11.034;2022-07-06T18:20:36;20.50;60.30
25058;DHT22;13057;50.978;11.034;2022-07-06T18:23:03;20.50;60.30
25058;DHT22;13057;50.978;11.034;2022-07-06T18:25:30;20.40;60.50
25058;DHT22;13057;50.978;11.034;2022-07-06T18:28:00;20.30;60.60
25058;DHT22;13057;50.978;11.034;2022-07-06T18:30:28;20.30;60.70
25058;DHT22;13057;50.978;11.034;2022-07-06T18:32:58;20.30;60.90
25058;DHT22;13057;50.978;11.034;2022-07-06T18:35:39;20.30;61.10